La rose des vents
Donnes mto: Semaine 07/01/08 - 13/01/08 (S 2)
Date Horaire Temp. E. Hum. E. P.atmo. Pluie Vent 1mn Direction Ensoleilleme Ev.Tr. Solaire P. de rose Temp au vent Rafales
07/01/2008 00:00 8,0 C 94 % 1016,5 hPa 0,0 l/m 2,0 km/h (1 Bft) O-SO 0,00 h 0,000 mm 0 W/m 7,1 C 7,9 C 3,2 km/h (1 Bft)
07/01/2008 01:00 7,7 C 95 % 1016,7 hPa 0,0 l/m 1,8 km/h (1 Bft) O-SO 0,00 h 0,000 mm 0 W/m 6,8 C 7,6 C 2,6 km/h (1 Bft)
07/01/2008 02:00 7,9 C 95 % 1017,1 hPa 0,0 l/m 3,4 km/h (1 Bft) O-SO 0,00 h 0,000 mm 0 W/m 7,1 C 7,8 C 4,6 km/h (1 Bft)
07/01/2008 03:00 7,8 C 95 % 1017,4 hPa 0,0 l/m 3,1 km/h (1 Bft) O-SO 0,00 h 0,000 mm 0 W/m 7,0 C 7,6 C 5,0 km/h (1 Bft)
07/01/2008 04:00 7,9 C 95 % 1017,6 hPa 0,0 l/m 2,7 km/h (1 Bft) O-SO 0,00 h 0,000 mm 0 W/m 7,1 C 7,8 C 4,3 km/h (1 Bft)
07/01/2008 05:00 7,9 C 95 % 1018,0 hPa 0,0 l/m 3,3 km/h (1 Bft) O-SO 0,00 h 0,000 mm 0 W/m 7,2 C 7,7 C 5,3 km/h (1 Bft)
07/01/2008 06:00 8,5 C 95 % 1018,3 hPa 0,0 l/m 3,7 km/h (1 Bft) NO 0,00 h 0,000 mm 0 W/m 7,7 C 8,3 C 5,3 km/h (1 Bft)
07/01/2008 07:00 8,2 C 95 % 1018,3 hPa 0,2 l/m 4,7 km/h (1 Bft) O-NO 0,00 h 0,000 mm 6 W/m 7,5 C 7,8 C 6,5 km/h (2 Bft)
07/01/2008 08:00 8,4 C 95 % 1018,3 hPa 0,0 l/m 2,9 km/h (1 Bft) O-NO 0,22 h 0,000 mm 25 W/m 7,6 C 8,3 C 4,1 km/h (1 Bft)
07/01/2008 09:00 9,5 C 93 % 1018,5 hPa 0,0 l/m 1,9 km/h (1 Bft) O-NO 0,55 h 0,025 mm 123 W/m 8,4 C 9,5 C 3,2 km/h (1 Bft)
07/01/2008 10:00 12,3 C 81 % 1018,6 hPa 0,0 l/m 1,0 km/h (0 Bft) E-NE 1,00 h 0,051 mm 268 W/m 9,1 C 12,3 C 1,9 km/h (1 Bft)
07/01/2008 11:00 12,9 C 77 % 1018,2 hPa 0,0 l/m 3,2 km/h (1 Bft) E-NE 0,80 h 0,127 mm 284 W/m 8,9 C 12,9 C 5,3 km/h (1 Bft)
07/01/2008 12:00 12,8 C 78 % 1017,4 hPa 0,0 l/m 5,4 km/h (1 Bft) E-NE 0,25 h 0,152 mm 179 W/m 9,0 C 12,8 C 7,8 km/h (2 Bft)
07/01/2008 13:00 12,5 C 79 % 1017,2 hPa 0,0 l/m 4,2 km/h (1 Bft) E 0,53 h 0,102 mm 229 W/m 8,9 C 12,5 C 6,4 km/h (2 Bft)
07/01/2008 14:00 12,4 C 81 % 1017,0 hPa 0,0 l/m 2,4 km/h (1 Bft) E-SE 0,53 h 0,127 mm 198 W/m 9,3 C 12,4 C 3,8 km/h (1 Bft)
07/01/2008 15:00 12,3 C 83 % 1016,8 hPa 0,0 l/m 0,8 km/h (0 Bft) E-SE 0,73 h 0,102 mm 149 W/m 9,6 C 12,3 C 2,0 km/h (1 Bft)
07/01/2008 16:00 12,3 C 82 % 1016,8 hPa 0,0 l/m 0,3 km/h (0 Bft) E-SE 0,58 h 0,076 mm 58 W/m 9,3 C 12,3 C 1,1 km/h (1 Bft)
07/01/2008 17:00 10,6 C 86 % 1017,0 hPa 0,0 l/m 2,6 km/h (1 Bft) E-SE 0,00 h 0,025 mm 6 W/m 8,3 C 10,6 C 3,7 km/h (1 Bft)
07/01/2008 18:00 10,0 C 88 % 1017,4 hPa 0,0 l/m 1,0 km/h (0 Bft) E-SE 0,00 h 0,000 mm 0 W/m 8,1 C 10,0 C 1,9 km/h (1 Bft)
07/01/2008 19:00 10,0 C 90 % 1017,7 hPa 0,0 l/m 1,4 km/h (1 Bft) E-SE 0,00 h 0,025 mm 0 W/m 8,3 C 10,0 C 2,6 km/h (1 Bft)
07/01/2008 20:00 9,7 C 91 % 1017,9 hPa 0,0 l/m 1,1 km/h (1 Bft) E 0,00 h 0,025 mm 0 W/m 8,2 C 9,7 C 1,8 km/h (1 Bft)
07/01/2008 21:00 9,6 C 91 % 1018,4 hPa 0,0 l/m 3,0 km/h (1 Bft) E 0,00 h 0,000 mm 0 W/m 8,3 C 9,6 C 4,5 km/h (1 Bft)
07/01/2008 22:00 9,7 C 92 % 1018,4 hPa 0,0 l/m 1,9 km/h (1 Bft) N-NE 0,00 h 0,025 mm 0 W/m 8,5 C 9,7 C 3,1 km/h (1 Bft)
07/01/2008 23:00 9,5 C 92 % 1019,0 hPa 0,0 l/m 2,6 km/h (1 Bft) N-NE 0,00 h 0,000 mm 0 W/m 8,3 C 9,5 C 4,1 km/h (1 Bft)
08/01/2008 00:00 9,0 C 91 % 1019,3 hPa 0,0 l/m 3,0 km/h (1 Bft) NO 0,00 h 0,000 mm 0 W/m 7,6 C 8,9 C 4,7 km/h (1 Bft)
08/01/2008 01:00 8,0 C 90 % 1019,6 hPa 0,0 l/m 5,1 km/h (1 Bft) O-NO 0,00 h 0,025 mm 0 W/m 6,5 C 7,4 C 7,4 km/h (2 Bft)
08/01/2008 02:00 7,1 C 89 % 1020,0 hPa 0,0 l/m 5,7 km/h (1 Bft) O-NO 0,00 h 0,025 mm 0 W/m 5,5 C 6,3 C 8,2 km/h (2 Bft)
08/01/2008 03:00 7,0 C 87 % 1020,1 hPa 0,0 l/m 4,5 km/h (1 Bft) O-NO 0,00 h 0,025 mm 0 W/m 5,0 C 6,5 C 7,2 km/h (2 Bft)
08/01/2008 04:00 7,5 C 83 % 1020,1 hPa 0,0 l/m 4,7 km/h (1 Bft) NO 0,00 h 0,025 mm 0 W/m 4,9 C 7,1 C 6,5 km/h (2 Bft)
08/01/2008 05:00 7,4 C 80 % 1020,4 hPa 0,0 l/m 4,0 km/h (1 Bft) NO 0,00 h 0,025 mm 0 W/m 4,2 C 7,1 C 5,5 km/h (1 Bft)
08/01/2008 06:00 7,7 C 80 % 1020,7 hPa 0,0 l/m 7,0 km/h (2 Bft) O 0,00 h 0,025 mm 0 W/m 4,5 C 6,6 C 8,5 km/h (2 Bft)
08/01/2008 07:00 6,8 C 80 % 1021,2 hPa 0,0 l/m 4,3 km/h (1 Bft) O-NO 0,00 h 0,025 mm 5 W/m 3,6 C 6,3 C 6,1 km/h (2 Bft)
08/01/2008 08:00 6,7 C 82 % 1021,8 hPa 0,0 l/m 4,5 km/h (1 Bft) O-NO 0,73 h 0,025 mm 44 W/m 3,9 C 6,2 C 5,9 km/h (2 Bft)
08/01/2008 09:00 9,0 C 74 % 1022,1 hPa 0,0 l/m 2,7 km/h (1 Bft) N-NO 1,00 h 0,025 mm 165 W/m 4,6 C 8,9 C 4,3 km/h (1 Bft)
08/01/2008 10:00 11,6 C 65 % 1022,8 hPa 0,0 l/m 0,2 km/h (0 Bft) N-NO 1,00 h 0,076 mm 280 W/m 5,2 C 11,6 C 0,7 km/h (0 Bft)
08/01/2008 11:00 13,3 C 65 % 1022,7 hPa 0,0 l/m 2,7 km/h (1 Bft) E 1,00 h 0,152 mm 363 W/m 6,8 C 13,3 C 5,2 km/h (1 Bft)
08/01/2008 12:00 13,5 C 62 % 1022,4 hPa 0,0 l/m 6,2 km/h (2 Bft) SE 1,00 h 0,203 mm 394 W/m 6,4 C 13,5 C 9,0 km/h (2 Bft)
08/01/2008 13:00 13,7 C 61 % 1022,1 hPa 0,0 l/m 7,4 km/h (2 Bft) S-SE 1,00 h 0,229 mm 373 W/m 6,2 C 13,7 C 10,9 km/h (2 Bft)
08/01/2008 14:00 13,9 C 55 % 1021,8 hPa 0,0 l/m 5,7 km/h (1 Bft) S-SE 1,00 h 0,229 mm 310 W/m 4,9 C 13,9 C 8,3 km/h (2 Bft)
08/01/2008 15:00 13,7 C 54 % 1021,7 hPa 0,0 l/m 3,7 km/h (1 Bft) E 0,83 h 0,203 mm 180 W/m 4,4 C 13,7 C 5,9 km/h (2 Bft)
08/01/2008 16:00 12,0 C 63 % 1021,7 hPa 0,0 l/m 1,5 km/h (1 Bft) E 0,40 h 0,127 mm 51 W/m 5,3 C 12,0 C 2,8 km/h (1 Bft)
08/01/2008 17:00 10,5 C 67 % 1021,7 hPa 0,0 l/m 2,0 km/h (1 Bft) E 0,02 h 0,025 mm 7 W/m 4,6 C 10,5 C 2,7 km/h (1 Bft)
08/01/2008 18:00 9,0 C 72 % 1022,0 hPa 0,0 l/m 4,7 km/h (1 Bft) O-NO 0,00 h 0,025 mm 0 W/m 4,3 C 8,7 C 6,7 km/h (2 Bft)
08/01/2008 19:00 8,3 C 72 % 1022,3 hPa 0,0 l/m 4,4 km/h (1 Bft) NO 0,00 h 0,025 mm 0 W/m 3,5 C 7,9 C 6,9 km/h (2 Bft)
08/01/2008 20:00 8,0 C 67 % 1022,2 hPa 0,0 l/m 5,5 km/h (1 Bft) O-NO 0,00 h 0,025 mm 0 W/m 2,3 C 7,3 C 8,5 km/h (2 Bft)
08/01/2008 21:00 7,4 C 67 % 1022,0 hPa 0,0 l/m 5,9 km/h (2 Bft) O-NO 0,00 h 0,025 mm 0 W/m 1,7 C 6,5 C 8,5 km/h (2 Bft)
08/01/2008 22:00 7,0 C 66 % 1022,0 hPa 0,0 l/m 4,8 km/h (1 Bft) O-NO 0,00 h 0,051 mm 0 W/m 1,2 C 6,5 C 7,5 km/h (2 Bft)
08/01/2008 23:00 6,9 C 65 % 1022,3 hPa 0,0 l/m 12,3 km/h (3 Bft) O 0,00 h 0,025 mm 0 W/m 0,9 C 4,5 C 16,0 km/h (3 Bft)
09/01/2008 00:00 7,2 C 62 % 1022,3 hPa 0,0 l/m 12,2 km/h (2 Bft) O-NO 0,00 h 0,051 mm 0 W/m 0,3 C 4,9 C 16,4 km/h (3 Bft)
09/01/2008 01:00 7,0 C 60 % 1022,0 hPa 0,0 l/m 8,7 km/h (2 Bft) NO 0,00 h 0,051 mm 0 W/m -0,2 C 5,4 C 12,4 km/h (3 Bft)
09/01/2008 02:00 6,2 C 64 % 1021,8 hPa 0,0 l/m 5,2 km/h (1 Bft) NO 0,00 h 0,051 mm 0 W/m -0,0 C 5,4 C 7,8 km/h (2 Bft)
09/01/2008 03:00 7,1 C 60 % 1021,7 hPa 0,0 l/m 9,2 km/h (2 Bft) O-NO 0,00 h 0,025 mm 0 W/m -0,0 C 5,4 C 13,0 km/h (3 Bft)
09/01/2008 04:00 7,2 C 58 % 1021,5 hPa 0,0 l/m 4,8 km/h (1 Bft) O-NO 0,00 h 0,051 mm 0 W/m -0,4 C 6,5 C 7,1 km/h (2 Bft)
09/01/2008 05:00 6,7 C 60 % 1021,3 hPa 0,0 l/m 2,5 km/h (1 Bft) NO 0,00 h 0,051 mm 0 W/m -0,5 C 6,5 C 3,4 km/h (1 Bft)
09/01/2008 06:00 6,5 C 62 % 1021,4 hPa 0,0 l/m 4,0 km/h (1 Bft) NO 0,00 h 0,025 mm 0 W/m -0,3 C 6,2 C 6,1 km/h (2 Bft)
09/01/2008 07:00 6,4 C 62 % 1021,6 hPa 0,0 l/m 3,8 km/h (1 Bft) O-NO 0,00 h 0,025 mm 0 W/m -0,3 C 6,0 C 5,9 km/h (2 Bft)
09/01/2008 08:00 6,8 C 60 % 1021,8 hPa 0,0 l/m 4,9 km/h (1 Bft) O-NO 0,02 h 0,025 mm 19 W/m -0,3 C 6,2 C 6,5 km/h (2 Bft)
09/01/2008 09:00 7,5 C 60 % 1022,3 hPa 0,0 l/m 4,6 km/h (1 Bft) NO 0,12 h 0,025 mm 85 W/m 0,2 C 6,9 C 6,9 km/h (2 Bft)
09/01/2008 10:00 9,5 C 60 % 1022,6 hPa 0,0 l/m 0,6 km/h (0 Bft) NO 0,73 h 0,051 mm 186 W/m 2,1 C 9,5 C 1,8 km/h (1 Bft)
09/01/2008 11:00 9,7 C 64 % 1022,4 hPa 0,0 l/m 0,4 km/h (0 Bft) NO 0,00 h 0,102 mm 114 W/m 3,2 C 9,7 C 0,9 km/h (0 Bft)
09/01/2008 12:00 10,0 C 63 % 1021,9 hPa 0,0 l/m 0,1 km/h (0 Bft) NO 0,00 h 0,051 mm 120 W/m 3,2 C 10,0 C 0,3 km/h (0 Bft)
09/01/2008 13:00 11,0 C 64 % 1021,3 hPa 0,0 l/m 2,0 km/h (1 Bft) NO 0,00 h 0,051 mm 178 W/m 4,5 C 11,0 C 3,2 km/h (1 Bft)
09/01/2008 14:00 11,2 C 69 % 1020,9 hPa 0,0 l/m 2,9 km/h (1 Bft) S-SO 0,00 h 0,102 mm 151 W/m 5,7 C 11,2 C 5,2 km/h (1 Bft)
09/01/2008 15:00 10,7 C 74 % 1020,9 hPa 0,0 l/m 0,6 km/h (0 Bft) S-SO 0,00 h 0,076 mm 103 W/m 6,3 C 10,7 C 1,5 km/h (1 Bft)
09/01/2008 16:00 9,9 C 77 % 1020,9 hPa 0,0 l/m 0,2 km/h (0 Bft) S-SO 0,00 h 0,051 mm 33 W/m 6,2 C 9,9 C 0,7 km/h (0 Bft)
09/01/2008 17:00 9,6 C 78 % 1021,2 hPa 0,0 l/m 0,1 km/h (0 Bft) S-SO 0,00 h 0,025 mm 6 W/m 6,1 C 9,6 C 0,2 km/h (0 Bft)
09/01/2008 18:00 9,1 C 80 % 1021,5 hPa 0,0 l/m 0,0 km/h (0 Bft) S-SO 0,00 h 0,000 mm 0 W/m 5,8 C 9,1 C 0,3 km/h (0 Bft)
09/01/2008 19:00 9,1 C 82 % 1021,8 hPa 0,0 l/m 0,6 km/h (0 Bft) S-SO 0,00 h 0,025 mm 0 W/m 6,1 C 9,1 C 1,8 km/h (1 Bft)
09/01/2008 20:00 8,8 C 83 % 1021,8 hPa 0,0 l/m 2,1 km/h (1 Bft) SO 0,00 h 0,025 mm 0 W/m 6,1 C 8,8 C 3,5 km/h (1 Bft)
09/01/2008 21:00 8,6 C 85 % 1022,0 hPa 0,0 l/m 2,4 km/h (1 Bft) SO 0,00 h 0,025 mm 0 W/m 6,2 C 8,6 C 4,2 km/h (1 Bft)
09/01/2008 22:00 8,5 C 85 % 1022,2 hPa 0,0 l/m 3,0 km/h (1 Bft) O 0,00 h 0,025 mm 0 W/m 6,0 C 8,4 C 4,8 km/h (1 Bft)
09/01/2008 23:00 8,4 C 83 % 1022,2 hPa 0,0 l/m 2,9 km/h (1 Bft) O-NO 0,00 h 0,025 mm 0 W/m 5,6 C 8,3 C 4,7 km/h (1 Bft)
10/01/2008 00:00 8,4 C 82 % 1022,2 hPa 0,0 l/m 3,2 km/h (1 Bft) NO 0,00 h 0,025 mm 0 W/m 5,4 C 8,2 C 5,0 km/h (1 Bft)
10/01/2008 01:00 8,0 C 80 % 1022,2 hPa 0,0 l/m 1,3 km/h (1 Bft) NO 0,00 h 0,025 mm 0 W/m 4,8 C 8,0 C 2,7 km/h (1 Bft)
10/01/2008 02:00 7,6 C 80 % 1022,2 hPa 0,0 l/m 2,2 km/h (1 Bft) NO 0,00 h 0,025 mm 0 W/m 4,4 C 7,6 C 3,4 km/h (1 Bft)
10/01/2008 03:00 7,2 C 80 % 1022,3 hPa 0,0 l/m 3,0 km/h (1 Bft) NO 0,00 h 0,025 mm 0 W/m 4,0 C 7,0 C 4,3 km/h (1 Bft)
10/01/2008 04:00 7,3 C 80 % 1022,1 hPa 0,0 l/m 1,9 km/h (1 Bft) NO 0,00 h 0,025 mm 0 W/m 4,1 C 7,2 C 3,2 km/h (1 Bft)
10/01/2008 05:00 7,6 C 80 % 1022,0 hPa 0,0 l/m 0,4 km/h (0 Bft) NO 0,00 h 0,025 mm 0 W/m 4,3 C 7,6 C 0,8 km/h (0 Bft)
10/01/2008 06:00 7,2 C 80 % 1022,3 hPa 0,0 l/m 0,5 km/h (0 Bft) NO 0,00 h 0,025 mm 0 W/m 4,0 C 7,2 C 1,1 km/h (1 Bft)
10/01/2008 07:00 7,2 C 81 % 1022,8 hPa 0,0 l/m 1,8 km/h (1 Bft) NO 0,00 h 0,025 mm 0 W/m 4,1 C 7,2 C 3,5 km/h (1 Bft)
10/01/2008 08:00 7,1 C 81 % 1023,2 hPa 0,0 l/m 2,0 km/h (1 Bft) NE 0,00 h 0,000 mm 5 W/m 4,0 C 7,1 C 3,4 km/h (1 Bft)
10/01/2008 09:00 7,1 C 80 % 1023,7 hPa 0,0 l/m 1,4 km/h (1 Bft) NE 0,00 h 0,000 mm 18 W/m 3,9 C 7,1 C 2,1 km/h (1 Bft)
10/01/2008 10:00 7,8 C 81 % 1024,1 hPa 0,0 l/m 1,7 km/h (1 Bft) N-NE 0,00 h 0,025 mm 38 W/m 4,8 C 7,8 C 3,2 km/h (1 Bft)
10/01/2008 11:00 8,5 C 80 % 1024,2 hPa 0,0 l/m 1,9 km/h (1 Bft) N-NE 0,00 h 0,025 mm 55 W/m 5,2 C 8,4 C 3,6 km/h (1 Bft)
10/01/2008 12:00 8,3 C 80 % 1023,8 hPa 0,2 l/m 1,9 km/h (1 Bft) N-NE 0,00 h 0,025 mm 62 W/m 5,1 C 8,3 C 3,4 km/h (1 Bft)
10/01/2008 13:00 8,3 C 83 % 1023,4 hPa 0,8 l/m 2,4 km/h (1 Bft) N-NE 0,00 h 0,025 mm 69 W/m 5,5 C 8,2 C 4,0 km/h (1 Bft)
10/01/2008 14:00 8,2 C 89 % 1023,0 hPa 0,6 l/m 1,8 km/h (1 Bft) N-NE 0,00 h 0,025 mm 51 W/m 6,4 C 8,2 C 3,9 km/h (1 Bft)
10/01/2008 15:00 8,2 C 91 % 1022,9 hPa 0,2 l/m 0,6 km/h (0 Bft) N-NE 0,00 h 0,025 mm 32 W/m 6,7 C 8,2 C 1,5 km/h (1 Bft)
10/01/2008 16:00 7,8 C 91 % 1022,9 hPa 0,4 l/m 2,9 km/h (1 Bft) N-NE 0,00 h 0,025 mm 10 W/m 6,5 C 7,7 C 4,8 km/h (1 Bft)
10/01/2008 17:00 7,5 C 93 % 1023,0 hPa 1,2 l/m 2,6 km/h (1 Bft) N-NE 0,00 h 0,000 mm 0 W/m 6,4 C 7,4 C 4,7 km/h (1 Bft)
10/01/2008 18:00 7,7 C 93 % 1023,0 hPa 0,6 l/m 1,7 km/h (1 Bft) N-NE 0,00 h 0,000 mm 0 W/m 6,7 C 7,7 C 3,2 km/h (1 Bft)
10/01/2008 19:00 8,0 C 94 % 1023,3 hPa 0,8 l/m 2,6 km/h (1 Bft) N-NE 0,00 h 0,000 mm 0 W/m 7,1 C 7,9 C 4,4 km/h (1 Bft)
10/01/2008 20:00 8,0 C 95 % 1023,4 hPa 1,4 l/m 1,1 km/h (0 Bft) N-NE 0,00 h 0,000 mm 0 W/m 7,2 C 8,0 C 2,8 km/h (1 Bft)
10/01/2008 21:00 8,1 C 95 % 1023,2 hPa 0,4 l/m 1,0 km/h (0 Bft) N-NE 0,00 h 0,000 mm 0 W/m 7,3 C 8,1 C 1,8 km/h (1 Bft)
10/01/2008 22:00 8,2 C 95 % 1023,0 hPa 0,2 l/m 2,0 km/h (1 Bft) N-NE 0,00 h 0,000 mm 0 W/m 7,4 C 8,1 C 3,4 km/h (1 Bft)
10/01/2008 23:00 8,0 C 95 % 1023,2 hPa 1,0 l/m 4,0 km/h (1 Bft) N-NE 0,00 h 0,000 mm 0 W/m 7,3 C 7,8 C 5,7 km/h (1 Bft)
11/01/2008 00:00 7,9 C 96 % 1022,7 hPa 1,2 l/m 0,7 km/h (0 Bft) N-NE 0,00 h 0,000 mm 0 W/m 7,3 C 7,9 C 1,7 km/h (1 Bft)
11/01/2008 01:00 8,2 C 96 % 1021,9 hPa 0,2 l/m 1,8 km/h (1 Bft) N-NE 0,00 h 0,000 mm 0 W/m 7,6 C 8,2 C 3,5 km/h (1 Bft)
11/01/2008 02:00 8,3 C 96 % 1021,5 hPa 0,2 l/m 2,9 km/h (1 Bft) NE 0,00 h 0,000 mm 0 W/m 7,7 C 8,2 C 4,5 km/h (1 Bft)
11/01/2008 03:00 8,3 C 96 % 1021,1 hPa 1,2 l/m 2,1 km/h (1 Bft) NE 0,00 h 0,000 mm 0 W/m 7,7 C 8,3 C 4,1 km/h (1 Bft)
11/01/2008 04:00 8,3 C 96 % 1020,4 hPa 0,4 l/m 2,1 km/h (1 Bft) NE 0,00 h 0,000 mm 0 W/m 7,7 C 8,3 C 4,0 km/h (1 Bft)
11/01/2008 05:00 8,4 C 97 % 1019,7 hPa 0,2 l/m 4,1 km/h (1 Bft) NE 0,00 h 0,000 mm 0 W/m 7,9 C 8,1 C 6,4 km/h (2 Bft)
11/01/2008 06:00 8,4 C 97 % 1019,3 hPa 0,8 l/m 2,8 km/h (1 Bft) N-NE 0,00 h 0,000 mm 0 W/m 8,0 C 8,3 C 4,9 km/h (1 Bft)
11/01/2008 07:00 8,4 C 97 % 1019,1 hPa 1,8 l/m 3,7 km/h (1 Bft) NE 0,00 h 0,000 mm 0 W/m 8,0 C 8,1 C 5,6 km/h (1 Bft)
11/01/2008 08:00 8,4 C 97 % 1019,0 hPa 2,2 l/m 3,1 km/h (1 Bft) NE 0,00 h 0,000 mm 6 W/m 8,0 C 8,2 C 5,0 km/h (1 Bft)
11/01/2008 09:00 8,5 C 97 % 1019,0 hPa 2,4 l/m 1,6 km/h (1 Bft) NE 0,00 h 0,000 mm 11 W/m 8,0 C 8,4 C 3,0 km/h (1 Bft)
11/01/2008 10:00 8,8 C 97 % 1018,9 hPa 1,6 l/m 2,3 km/h (1 Bft) N-NE 0,00 h 0,000 mm 27 W/m 8,4 C 8,8 C 4,2 km/h (1 Bft)
11/01/2008 11:00 9,1 C 97 % 1018,5 hPa 0,8 l/m 1,6 km/h (1 Bft) N-NE 0,00 h 0,025 mm 35 W/m 8,7 C 9,1 C 3,4 km/h (1 Bft)
11/01/2008 12:00 9,4 C 97 % 1017,7 hPa 0,8 l/m 1,2 km/h (1 Bft) N-NE 0,00 h 0,025 mm 39 W/m 9,0 C 9,4 C 2,5 km/h (1 Bft)
11/01/2008 13:00 9,6 C 97 % 1016,2 hPa 2,2 l/m 1,1 km/h (0 Bft) N-NE 0,00 h 0,025 mm 29 W/m 9,2 C 9,6 C 2,2 km/h (1 Bft)
11/01/2008 14:00 9,5 C 98 % 1015,2 hPa 2,6 l/m 3,7 km/h (1 Bft) NE 0,00 h 0,025 mm 25 W/m 9,2 C 9,3 C 5,5 km/h (1 Bft)
11/01/2008 15:00 9,4 C 98 % 1014,3 hPa 10,2 l/m 2,5 km/h (1 Bft) NE 0,00 h 0,025 mm 15 W/m 9,1 C 9,3 C 4,2 km/h (1 Bft)
11/01/2008 16:00 9,6 C 98 % 1013,8 hPa 6,8 l/m 2,6 km/h (1 Bft) N 0,00 h 0,000 mm 5 W/m 9,3 C 9,5 C 4,7 km/h (1 Bft)
11/01/2008 17:00 10,8 C 99 % 1013,3 hPa 0,0 l/m 11,5 km/h (2 Bft) S-SE 0,00 h 0,000 mm 0 W/m 10,7 C 10,8 C 16,2 km/h (3 Bft)
11/01/2008 18:00 11,7 C 99 % 1012,8 hPa 0,0 l/m 18,0 km/h (3 Bft) S-SE 0,00 h 0,000 mm 0 W/m 11,5 C 11,7 C 25,2 km/h (4 Bft)
11/01/2008 19:00 11,8 C 100 % 1012,6 hPa 0,0 l/m 21,8 km/h (4 Bft) S 0,00 h 0,025 mm 0 W/m 11,7 C 11,8 C 31,1 km/h (5 Bft)
11/01/2008 20:00 11,8 C 100 % 1012,3 hPa 0,2 l/m 20,9 km/h (4 Bft) S 0,00 h 0,025 mm 0 W/m 11,8 C 11,8 C 29,4 km/h (5 Bft)
11/01/2008 21:00 11,8 C 100 % 1011,5 hPa 1,2 l/m 22,8 km/h (4 Bft) S-SE 0,00 h 0,025 mm 0 W/m 11,8 C 11,8 C 30,9 km/h (5 Bft)
11/01/2008 22:00 11,8 C 100 % 1010,9 hPa 0,0 l/m 23,3 km/h (4 Bft) S 0,00 h 0,025 mm 0 W/m 11,8 C 11,8 C 32,0 km/h (5 Bft)
11/01/2008 23:00 11,8 C 100 % 1010,3 hPa 0,0 l/m 22,9 km/h (4 Bft) S 0,00 h 0,025 mm 0 W/m 11,8 C 11,8 C 31,9 km/h (5 Bft)
12/01/2008 00:00 11,8 C 100 % 1009,5 hPa 0,0 l/m 21,8 km/h (4 Bft) S-SE 0,00 h 0,025 mm 0 W/m 11,8 C 11,8 C 29,9 km/h (5 Bft)
12/01/2008 01:00 11,8 C 100 % 1008,2 hPa 0,0 l/m 23,6 km/h (4 Bft) S 0,00 h 0,025 mm 0 W/m 11,8 C 11,8 C 32,9 km/h (5 Bft)
12/01/2008 02:00 11,8 C 100 % 1007,4 hPa 0,4 l/m 23,8 km/h (4 Bft) S-SE 0,00 h 0,025 mm 0 W/m 11,8 C 11,8 C 33,5 km/h (5 Bft)
12/01/2008 03:00 11,6 C 99 % 1006,5 hPa 0,8 l/m 24,4 km/h (4 Bft) S-SE 0,00 h 0,025 mm 0 W/m 11,5 C 11,6 C 34,2 km/h (5 Bft)
12/01/2008 04:00 11,4 C 100 % 1005,4 hPa 0,0 l/m 20,3 km/h (4 Bft) S-SE 0,00 h 0,025 mm 0 W/m 11,4 C 11,4 C 28,6 km/h (4 Bft)
12/01/2008 05:00 10,6 C 98 % 1004,5 hPa 3,4 l/m 10,2 km/h (2 Bft) S-SO 0,00 h 0,025 mm 0 W/m 10,3 C 10,6 C 14,3 km/h (3 Bft)
12/01/2008 06:00 9,4 C 98 % 1004,3 hPa 1,8 l/m 7,5 km/h (2 Bft) O-SO 0,00 h 0,000 mm 0 W/m 9,1 C 8,6 C 10,7 km/h (2 Bft)
12/01/2008 07:00 9,1 C 98 % 1004,0 hPa 1,6 l/m 3,1 km/h (1 Bft) E-NE 0,00 h 0,000 mm 0 W/m 8,8 C 8,9 C 4,7 km/h (1 Bft)
12/01/2008 08:00 8,7 C 98 % 1004,1 hPa 1,4 l/m 6,0 km/h (2 Bft) S-SE 0,00 h 0,000 mm 8 W/m 8,4 C 7,9 C 8,4 km/h (2 Bft)
12/01/2008 09:00 8,2 C 98 % 1004,2 hPa 0,6 l/m 4,2 km/h (1 Bft) S-SE 0,00 h 0,000 mm 23 W/m 7,9 C 7,7 C 6,5 km/h (2 Bft)
12/01/2008 10:00 8,2 C 98 % 1004,0 hPa 0,0 l/m 3,4 km/h (1 Bft) NE 0,00 h 0,025 mm 66 W/m 7,9 C 7,8 C 5,0 km/h (1 Bft)
12/01/2008 11:00 8,3 C 98 % 1003,9 hPa 0,0 l/m 5,1 km/h (1 Bft) N-NE 0,00 h 0,025 mm 120 W/m 8,0 C 7,7 C 7,9 km/h (2 Bft)
12/01/2008 12:00 8,0 C 98 % 1003,3 hPa 0,2 l/m 3,6 km/h (1 Bft) N-NE 0,00 h 0,051 mm 42 W/m 7,7 C 7,5 C 5,1 km/h (1 Bft)
12/01/2008 13:00 7,2 C 98 % 1003,0 hPa 2,2 l/m 6,4 km/h (2 Bft) SO 0,00 h 0,025 mm 46 W/m 6,8 C 6,1 C 8,7 km/h (2 Bft)
12/01/2008 14:00 7,2 C 98 % 1002,6 hPa 1,6 l/m 3,3 km/h (1 Bft) NE 0,00 h 0,025 mm 49 W/m 6,9 C 6,9 C 5,1 km/h (1 Bft)
12/01/2008 15:00 6,8 C 98 % 1002,9 hPa 1,8 l/m 3,4 km/h (1 Bft) NE 0,00 h 0,025 mm 60 W/m 6,5 C 6,6 C 5,4 km/h (1 Bft)
12/01/2008 16:00 6,1 C 98 % 1003,3 hPa 2,8 l/m 4,4 km/h (1 Bft) O 0,00 h 0,025 mm 15 W/m 5,8 C 5,4 C 6,5 km/h (2 Bft)
12/01/2008 17:00 5,8 C 98 % 1003,2 hPa 0,2 l/m 5,5 km/h (1 Bft) NE 0,00 h 0,000 mm 0 W/m 5,5 C 4,9 C 8,1 km/h (2 Bft)
12/01/2008 18:00 5,8 C 98 % 1004,2 hPa 0,0 l/m 3,7 km/h (1 Bft) S-SE 0,00 h 0,000 mm 0 W/m 5,5 C 5,2 C 4,7 km/h (1 Bft)
12/01/2008 19:00 5,3 C 98 % 1005,3 hPa 0,2 l/m 8,6 km/h (2 Bft) O-NO 0,00 h 0,000 mm 0 W/m 5,0 C 3,4 C 11,4 km/h (2 Bft)
12/01/2008 20:00 5,0 C 98 % 1006,0 hPa 0,0 l/m 10,8 km/h (2 Bft) O 0,00 h 0,000 mm 0 W/m 4,7 C 2,5 C 14,4 km/h (3 Bft)
12/01/2008 21:00 4,9 C 97 % 1006,7 hPa 0,0 l/m 10,6 km/h (2 Bft) O-NO 0,00 h 0,000 mm 0 W/m 4,5 C 2,5 C 14,6 km/h (3 Bft)
12/01/2008 22:00 4,2 C 96 % 1007,6 hPa 0,0 l/m 5,6 km/h (1 Bft) O-NO 0,00 h 0,000 mm 0 W/m 3,6 C 3,1 C 7,7 km/h (2 Bft)
12/01/2008 23:00 4,0 C 95 % 1008,3 hPa 0,0 l/m 6,4 km/h (2 Bft) O-NO 0,00 h 0,000 mm 0 W/m 3,3 C 2,6 C 8,5 km/h (2 Bft)
13/01/2008 00:00 4,3 C 93 % 1008,8 hPa 0,0 l/m 5,5 km/h (1 Bft) O-NO 0,00 h 0,000 mm 0 W/m 3,3 C 3,2 C 7,8 km/h (2 Bft)
13/01/2008 01:00 4,7 C 91 % 1009,1 hPa 0,0 l/m 3,3 km/h (1 Bft) O-NO 0,00 h 0,000 mm 0 W/m 3,3 C 4,5 C 5,3 km/h (1 Bft)
13/01/2008 02:00 5,0 C 85 % 1009,6 hPa 0,0 l/m 5,6 km/h (1 Bft) O-NO 0,00 h 0,000 mm 0 W/m 2,7 C 3,9 C 7,4 km/h (2 Bft)
13/01/2008 03:00 5,0 C 80 % 1010,3 hPa 0,0 l/m 6,4 km/h (2 Bft) O-NO 0,00 h 0,025 mm 0 W/m 1,9 C 3,7 C 8,8 km/h (2 Bft)
13/01/2008 04:00 5,0 C 80 % 1011,1 hPa 0,0 l/m 1,8 km/h (1 Bft) N-NO 0,00 h 0,025 mm 0 W/m 1,9 C 4,9 C 2,7 km/h (1 Bft)
13/01/2008 05:00 5,3 C 78 % 1011,8 hPa 0,0 l/m 3,9 km/h (1 Bft) NO 0,00 h 0,025 mm 0 W/m 1,9 C 4,9 C 5,7 km/h (1 Bft)
13/01/2008 06:00 5,4 C 77 % 1012,9 hPa 0,0 l/m 4,0 km/h (1 Bft) NO 0,00 h 0,025 mm 0 W/m 1,6 C 4,9 C 5,9 km/h (2 Bft)
13/01/2008 07:00 5,1 C 77 % 1013,5 hPa 0,0 l/m 4,2 km/h (1 Bft) NO 0,00 h 0,025 mm 0 W/m 1,4 C 4,6 C 6,2 km/h (2 Bft)
13/01/2008 08:00 5,7 C 75 % 1014,1 hPa 0,0 l/m 5,3 km/h (1 Bft) NO 0,73 h 0,025 mm 52 W/m 1,7 C 4,9 C 7,4 km/h (2 Bft)
13/01/2008 09:00 8,3 C 66 % 1014,8 hPa 0,0 l/m 3,1 km/h (1 Bft) NO 1,00 h 0,051 mm 178 W/m 2,4 C 8,1 C 5,2 km/h (1 Bft)
13/01/2008 10:00 9,8 C 70 % 1015,6 hPa 0,0 l/m 1,5 km/h (1 Bft) NO 1,00 h 0,102 mm 287 W/m 4,5 C 9,7 C 2,9 km/h (1 Bft)
13/01/2008 11:00 10,9 C 64 % 1016,1 hPa 0,0 l/m 1,8 km/h (1 Bft) E-SE 1,00 h 0,152 mm 370 W/m 4,4 C 10,9 C 3,3 km/h (1 Bft)
13/01/2008 12:00 11,9 C 61 % 1016,3 hPa 0,0 l/m 4,9 km/h (1 Bft) S-SO 1,00 h 0,178 mm 407 W/m 4,6 C 11,9 C 7,2 km/h (2 Bft)
13/01/2008 13:00 12,1 C 61 % 1015,8 hPa 0,0 l/m 5,9 km/h (2 Bft) S 0,75 h 0,229 mm 335 W/m 4,9 C 12,1 C 8,5 km/h (2 Bft)
13/01/2008 14:00 11,0 C 69 % 1015,7 hPa 0,0 l/m 4,1 km/h (1 Bft) S 0,35 h 0,178 mm 152 W/m 5,4 C 11,0 C 5,9 km/h (2 Bft)
13/01/2008 15:00 11,7 C 67 % 1015,6 hPa 0,0 l/m 8,7 km/h (2 Bft) S-SE 1,00 h 0,102 mm 207 W/m 5,8 C 11,7 C 12,0 km/h (2 Bft)
13/01/2008 16:00 10,6 C 72 % 1015,8 hPa 0,0 l/m 8,6 km/h (2 Bft) S-SO 0,85 h 0,127 mm 76 W/m 5,8 C 10,6 C 11,6 km/h (2 Bft)
13/01/2008 17:00 8,6 C 77 % 1016,2 hPa 0,0 l/m 2,1 km/h (1 Bft) S-SO 0,00 h 0,076 mm 7 W/m 4,7 C 8,5 C 2,8 km/h (1 Bft)
13/01/2008 18:00 7,6 C 79 % 1016,6 hPa 0,0 l/m 2,4 km/h (1 Bft) S-SO 0,00 h 0,000 mm 0 W/m 4,2 C 7,4 C 3,4 km/h (1 Bft)
13/01/2008 19:00 6,7 C 84 % 1017,1 hPa 0,0 l/m 7,4 km/h (2 Bft) O-NO 0,00 h 0,025 mm 0 W/m 4,2 C 5,3 C 9,8 km/h (2 Bft)
13/01/2008 20:00 6,4 C 85 % 1017,3 hPa 0,0 l/m 5,9 km/h (2 Bft) O-NO 0,00 h 0,025 mm 0 W/m 4,0 C 5,3 C 8,7 km/h (2 Bft)
13/01/2008 21:00 6,2 C 84 % 1017,4 hPa 0,0 l/m 5,1 km/h (1 Bft) O-NO 0,00 h 0,025 mm 0 W/m 3,7 C 5,4 C 7,6 km/h (2 Bft)
13/01/2008 22:00 6,3 C 83 % 1017,6 hPa 0,0 l/m 7,2 km/h (2 Bft) O-NO 0,00 h 0,025 mm 0 W/m 3,6 C 4,9 C 10,3 km/h (2 Bft)
13/01/2008 23:00 6,9 C 79 % 1017,8 hPa 0,0 l/m 8,5 km/h (2 Bft) O-NO 0,00 h 0,025 mm 0 W/m 3,6 C 5,3 C 12,1 km/h (2 Bft)
Min-Date _ 12/01/08 08/01/08 12/01/08 - 07/01/08 - - - - 09/01/08 12/01/08 07/01/08
_ Min-Heure 23:50 15:03 14:45 - 00:17 - - - - 05:18 23:57 00:20
Minimum _ 3,8 C 47 % 1002,4 hPa - 0,0 km/h (0 Bft) - - - - -1,0 C 1,3 C 0,0 km/h (0 Bft)
Max-Date _ 08/01/08 11/01/08 10/01/08 11/01/08 11/01/08 - 13/01/08 08/01/08 13/01/08 12/01/08 08/01/08 11/01/08
_ Max-Heure 14:54 17:15 11:15 15:48 21:51 - 08:30 13:00 13:38 02:33 14:54 21:51
Maximum _ 14,2 C 100 % 1024,3 hPa 10,2 l/m 35,4 km/h
S-SE (5 Bft)
- 0,03 h 0,229 mm 468 W/m 11,9 C 14,2 C 53,1 km/h
S-SE (7 Bft)
Moyenne _ 8,7 C 84 % 1017,2 hPa #64,0 l/m 4,9 km/h (1 Bft) O-NO #21:44 h #5,967 mm 112 W/m 5,9 C 8,3 C 7,2 km/h (2 Bft)
Roquefort les pins